createdAt,value
2023-05-16T00:01:44.229Z,11.00
2023-05-16T00:04:11.982Z,11.00
2023-05-16T00:06:39.312Z,11.00
2023-05-16T00:09:06.993Z,11.00
2023-05-16T00:11:34.212Z,10.90
2023-05-16T00:14:01.556Z,10.90
2023-05-16T00:16:30.247Z,10.90
2023-05-16T00:18:58.091Z,10.90
2023-05-16T00:21:25.446Z,11.00
2023-05-16T00:23:55.405Z,11.10
2023-05-16T00:26:22.637Z,11.00
2023-05-16T00:28:49.852Z,11.00
2023-05-16T00:31:17.072Z,10.90
2023-05-16T00:33:45.029Z,11.00
2023-05-16T00:36:12.617Z,11.00
2023-05-16T00:38:39.909Z,10.90
2023-05-16T00:41:07.264Z,10.90
2023-05-16T00:43:37.534Z,10.90
2023-05-16T00:46:04.994Z,10.80
2023-05-16T00:48:33.369Z,10.80
2023-05-16T00:51:02.036Z,10.90
2023-05-16T00:53:29.268Z,10.80
2023-05-16T00:55:58.128Z,10.90
2023-05-16T00:58:25.733Z,10.90
2023-05-16T01:00:53.307Z,10.90
2023-05-16T01:03:21.677Z,10.90
2023-05-16T01:05:49.908Z,10.90
2023-05-16T01:08:17.065Z,10.80
2023-05-16T01:11:06.847Z,10.90
2023-05-16T01:13:42.483Z,10.90
2023-05-16T01:16:19.307Z,10.90
2023-05-16T01:19:07.972Z,10.90
2023-05-16T01:22:15.722Z,10.90
2023-05-16T01:25:00.901Z,10.90
2023-05-16T01:27:30.033Z,10.90
2023-05-16T01:29:58.700Z,10.90
2023-05-16T01:32:25.965Z,10.90
2023-05-16T01:34:53.661Z,10.90
2023-05-16T01:37:31.921Z,10.90
2023-05-16T01:40:30.176Z,10.80
2023-05-16T01:43:04.934Z,10.80
2023-05-16T01:45:39.887Z,10.70
2023-05-16T01:48:16.904Z,10.80
2023-05-16T01:50:50.078Z,10.80
2023-05-16T01:53:23.043Z,10.80
2023-05-16T01:55:57.368Z,10.80
2023-05-16T01:58:28.363Z,10.80
2023-05-16T02:01:03.849Z,10.90
2023-05-16T02:03:32.408Z,10.90
2023-05-16T02:06:00.221Z,10.80
2023-05-16T02:08:29.343Z,11.00
2023-05-16T02:10:56.553Z,10.80
2023-05-16T02:13:23.934Z,10.90
2023-05-16T02:15:52.902Z,10.90
2023-05-16T02:18:20.393Z,10.90
2023-05-16T02:20:47.689Z,10.90
2023-05-16T02:23:16.665Z,10.90
2023-05-16T02:25:43.975Z,10.80
2023-05-16T02:28:11.559Z,10.80
2023-05-16T02:30:39.044Z,10.80
2023-05-16T02:33:06.496Z,10.90
2023-05-16T02:35:33.734Z,10.80
2023-05-16T02:38:00.961Z,10.80
2023-05-16T02:40:28.258Z,10.90
2023-05-16T02:42:56.662Z,10.80
2023-05-16T02:45:24.052Z,10.70
2023-05-16T02:47:51.616Z,10.80
2023-05-16T02:50:19.325Z,10.80
2023-05-16T02:52:47.538Z,10.80
2023-05-16T02:57:45.092Z,10.70
2023-05-16T03:00:15.125Z,10.80
2023-05-16T03:02:43.903Z,10.70
2023-05-16T03:05:11.816Z,10.80
2023-05-16T03:07:39.805Z,10.70
2023-05-16T03:10:07.787Z,10.70
2023-05-16T03:12:35.218Z,10.70
2023-05-16T03:15:02.757Z,10.70
2023-05-16T03:17:30.374Z,10.70
2023-05-16T03:19:57.886Z,10.70
2023-05-16T03:22:25.263Z,10.80
2023-05-16T03:24:52.447Z,10.70
2023-05-16T03:27:19.720Z,10.70
2023-05-16T03:29:46.988Z,10.70
2023-05-16T03:32:14.544Z,10.80
2023-05-16T03:34:41.685Z,10.80
2023-05-16T03:37:11.235Z,10.90
2023-05-16T03:39:38.484Z,10.70
2023-05-16T03:42:05.843Z,10.80
2023-05-16T03:44:33.220Z,10.80
2023-05-16T03:47:00.586Z,10.80
2023-05-16T03:49:30.860Z,10.90
2023-05-16T03:51:58.194Z,10.80
2023-05-16T03:54:25.443Z,10.80
2023-05-16T03:56:52.842Z,10.80
2023-05-16T03:59:20.040Z,10.90
2023-05-16T04:01:47.804Z,10.90
2023-05-16T04:04:15.021Z,11.00
2023-05-16T04:06:42.278Z,10.80
2023-05-16T04:09:09.629Z,10.90
2023-05-16T04:11:38.871Z,10.90
2023-05-16T04:14:06.410Z,10.90
2023-05-16T04:16:33.913Z,10.90
2023-05-16T04:19:01.224Z,10.90
2023-05-16T04:21:28.378Z,10.80
2023-05-16T04:23:55.546Z,10.80
2023-05-16T04:26:23.196Z,10.80
2023-05-16T04:28:51.009Z,10.70
2023-05-16T04:31:18.343Z,10.70
2023-05-16T04:33:45.996Z,10.70
2023-05-16T04:36:13.393Z,10.80
2023-05-16T04:38:41.947Z,10.80
2023-05-16T04:41:09.583Z,10.90
2023-05-16T04:43:37.920Z,10.90
2023-05-16T04:46:05.302Z,10.90
2023-05-16T04:48:32.611Z,10.80
2023-05-16T04:51:00.163Z,10.70
2023-05-16T04:53:27.458Z,10.70
2023-05-16T04:55:54.734Z,10.70
2023-05-16T04:58:24.310Z,10.70
2023-05-16T05:00:52.670Z,10.60
2023-05-16T05:03:20.004Z,10.60
2023-05-16T05:05:47.696Z,10.60
2023-05-16T05:08:15.141Z,10.60
2023-05-16T05:10:42.563Z,10.70
2023-05-16T05:13:11.143Z,10.60
2023-05-16T05:15:38.676Z,10.70
2023-05-16T05:18:06.068Z,10.70
2023-05-16T05:20:33.519Z,10.70
2023-05-16T05:23:00.719Z,10.70
2023-05-16T05:25:28.188Z,10.80
2023-05-16T05:27:55.625Z,10.80
2023-05-16T05:30:22.846Z,10.70
2023-05-16T05:32:50.111Z,10.70
2023-05-16T05:35:17.299Z,10.70
2023-05-16T05:37:44.435Z,10.70
2023-05-16T05:40:11.905Z,10.70
2023-05-16T05:42:39.160Z,10.90
2023-05-16T05:45:07.678Z,10.90
2023-05-16T05:47:35.164Z,11.00
2023-05-16T05:50:03.649Z,11.10
2023-05-16T05:52:31.003Z,11.10
2023-05-16T05:54:59.460Z,11.30
2023-05-16T05:57:26.936Z,11.40
2023-05-16T05:59:54.098Z,11.50
2023-05-16T06:02:21.757Z,11.50
2023-05-16T06:04:49.215Z,11.60
2023-05-16T06:07:17.124Z,11.60
2023-05-16T06:09:44.516Z,11.70
2023-05-16T06:12:11.710Z,11.80
2023-05-16T06:14:39.184Z,11.90
2023-05-16T06:17:06.670Z,11.80
2023-05-16T06:19:34.098Z,11.90
2023-05-16T06:22:01.328Z,11.90
2023-05-16T06:24:29.796Z,11.90
2023-05-16T06:26:56.979Z,12.00
2023-05-16T06:29:24.515Z,12.10
2023-05-16T06:31:51.965Z,12.10
2023-05-16T06:34:19.430Z,12.10
2023-05-16T06:36:46.694Z,12.20
2023-05-16T06:39:13.860Z,12.20
2023-05-16T06:41:41.554Z,12.20
2023-05-16T06:44:15.882Z,12.10
2023-05-16T06:46:43.201Z,12.00
2023-05-16T06:49:10.673Z,12.00
2023-05-16T06:51:37.928Z,12.10
2023-05-16T06:54:05.582Z,12.00
2023-05-16T06:56:32.942Z,12.00
2023-05-16T06:59:01.771Z,12.00
2023-05-16T07:01:29.102Z,12.10
2023-05-16T07:03:56.734Z,12.10
2023-05-16T07:06:24.161Z,12.10
2023-05-16T07:08:51.698Z,12.20
2023-05-16T07:11:18.931Z,12.30
2023-05-16T07:13:46.165Z,12.40
2023-05-16T07:16:13.662Z,12.40
2023-05-16T07:18:41.051Z,12.40
2023-05-16T07:21:08.793Z,12.50
2023-05-16T07:23:36.069Z,12.40
2023-05-16T07:26:03.667Z,12.40
2023-05-16T07:28:31.152Z,12.40
2023-05-16T07:31:01.070Z,12.40
2023-05-16T07:33:28.354Z,12.40
2023-05-16T07:36:07.785Z,12.40
2023-05-16T07:38:43.450Z,12.40
2023-05-16T07:41:10.934Z,12.40
2023-05-16T07:43:38.432Z,12.40
2023-05-16T07:46:06.194Z,12.30
2023-05-16T07:48:33.557Z,12.20
2023-05-16T07:51:01.094Z,12.20
2023-05-16T07:53:28.476Z,12.10
2023-05-16T07:55:56.444Z,12.30
2023-05-16T07:58:23.803Z,12.30
2023-05-16T08:00:51.099Z,12.30
2023-05-16T08:03:18.656Z,12.20
2023-05-16T08:05:45.987Z,12.30
2023-05-16T08:08:13.686Z,12.30
2023-05-16T08:10:40.871Z,12.30
2023-05-16T08:13:08.171Z,12.40
2023-05-16T08:15:35.853Z,12.40
2023-05-16T08:18:03.339Z,12.30
2023-05-16T08:20:30.699Z,12.40
2023-05-16T08:22:57.900Z,12.50
2023-05-16T08:25:25.711Z,12.60
2023-05-16T08:27:55.249Z,12.60
2023-05-16T08:30:22.778Z,12.60
2023-05-16T08:32:50.365Z,12.70
2023-05-16T08:35:17.868Z,12.70
2023-05-16T08:37:45.154Z,12.80
2023-05-16T08:40:16.579Z,12.90
2023-05-16T08:42:45.393Z,12.70
2023-05-16T08:45:13.292Z,12.80
2023-05-16T08:47:42.759Z,12.90
2023-05-16T08:50:11.202Z,13.00
2023-05-16T08:52:40.542Z,13.10
2023-05-16T08:55:11.406Z,13.10
2023-05-16T08:57:40.747Z,13.10
2023-05-16T09:00:13.115Z,13.10
2023-05-16T09:02:41.822Z,13.10
2023-05-16T09:05:12.096Z,13.10
2023-05-16T09:07:40.515Z,13.10
2023-05-16T09:10:11.570Z,13.10
2023-05-16T09:12:40.883Z,13.10
2023-05-16T09:15:11.775Z,13.30
2023-05-16T09:17:45.804Z,13.40
2023-05-16T09:20:16.368Z,13.50
2023-05-16T09:22:57.935Z,13.60
2023-05-16T09:25:30.982Z,13.70
2023-05-16T09:28:02.082Z,13.70
2023-05-16T09:30:31.968Z,14.00
2023-05-16T09:32:59.965Z,14.50
2023-05-16T09:37:58.234Z,15.10
2023-05-16T09:40:25.660Z,15.20
2023-05-16T09:43:07.079Z,15.20
2023-05-16T09:45:36.535Z,15.10
2023-05-16T09:48:09.209Z,15.00
2023-05-16T09:50:37.949Z,15.00
2023-05-16T09:53:05.947Z,14.90
2023-05-16T09:55:33.413Z,14.80
2023-05-16T09:58:01.093Z,14.90
2023-05-16T10:00:33.021Z,15.00
2023-05-16T10:03:04.673Z,14.90
2023-05-16T10:05:33.750Z,14.70
2023-05-16T10:08:03.074Z,14.60
2023-05-16T10:10:31.497Z,14.60
2023-05-16T10:13:01.866Z,14.50
2023-05-16T10:15:30.218Z,14.30
2023-05-16T10:18:00.751Z,14.20
2023-05-16T10:20:28.797Z,14.20
2023-05-16T10:22:57.983Z,14.00
2023-05-16T10:25:41.950Z,14.10
2023-05-16T10:28:09.627Z,14.10
2023-05-16T10:30:40.447Z,14.20
2023-05-16T10:33:08.603Z,13.90
2023-05-16T10:35:37.046Z,14.00
2023-05-16T10:38:08.162Z,14.10
2023-05-16T10:40:37.459Z,13.90
2023-05-16T10:43:06.634Z,13.80
2023-05-16T10:45:34.749Z,13.70
2023-05-16T10:48:05.129Z,13.60
2023-05-16T10:50:45.555Z,13.50
2023-05-16T10:53:28.848Z,13.40
2023-05-16T10:55:58.996Z,13.40
2023-05-16T10:58:35.347Z,13.30
2023-05-16T11:01:16.020Z,13.20
2023-05-16T11:04:04.392Z,13.20
2023-05-16T11:06:41.076Z,13.30
2023-05-16T11:09:22.345Z,13.30
2023-05-16T11:11:53.811Z,13.30
2023-05-16T11:14:38.242Z,13.30
2023-05-16T11:17:16.543Z,13.20
2023-05-16T11:19:59.359Z,13.20
2023-05-16T11:22:29.526Z,13.20
2023-05-16T11:25:08.579Z,13.20
2023-05-16T11:27:46.872Z,13.20
2023-05-16T11:30:16.127Z,13.30
2023-05-16T11:32:45.275Z,13.20
2023-05-16T11:35:15.312Z,13.20
2023-05-16T11:37:43.924Z,12.90
2023-05-16T11:40:12.860Z,12.90
2023-05-16T11:42:44.874Z,12.90
2023-05-16T11:45:16.041Z,13.00
2023-05-16T11:47:45.586Z,12.80
2023-05-16T11:53:06.073Z,12.70
2023-05-16T11:58:06.512Z,12.90
2023-05-16T12:00:33.900Z,12.70
2023-05-16T12:03:04.597Z,12.90
2023-05-16T12:05:34.092Z,12.90
2023-05-16T12:08:02.732Z,13.10
2023-05-16T12:10:34.095Z,13.30
2023-05-16T12:13:02.666Z,13.50
2023-05-16T12:15:30.484Z,13.70
2023-05-16T12:17:58.017Z,13.80
2023-05-16T12:20:26.045Z,14.00
2023-05-16T12:22:53.707Z,14.00
2023-05-16T12:25:21.042Z,14.20
2023-05-16T12:27:48.374Z,14.30
2023-05-16T12:30:18.780Z,14.40
2023-05-16T12:32:46.283Z,14.50
2023-05-16T12:35:13.681Z,14.50
2023-05-16T12:37:44.110Z,14.60
2023-05-16T12:40:13.502Z,14.50
2023-05-16T12:42:44.618Z,14.50
2023-05-16T12:45:17.062Z,14.70
2023-05-16T12:47:44.858Z,14.80
2023-05-16T12:50:14.648Z,14.90
2023-05-16T12:52:51.736Z,14.90
2023-05-16T12:55:20.541Z,14.90
2023-05-16T12:57:49.067Z,15.00
2023-05-16T13:00:21.951Z,15.10
2023-05-16T13:02:49.330Z,15.00
2023-05-16T13:05:17.754Z,15.00
2023-05-16T13:07:45.064Z,15.30
2023-05-16T13:10:12.906Z,15.40
2023-05-16T13:12:41.236Z,15.50
2023-05-16T13:15:10.476Z,15.30
2023-05-16T13:17:39.157Z,15.20
2023-05-16T13:20:10.114Z,15.00
2023-05-16T13:22:37.766Z,15.10
2023-05-16T13:25:06.498Z,15.30
2023-05-16T13:27:34.369Z,15.30
2023-05-16T13:30:01.904Z,15.10
2023-05-16T13:32:29.248Z,14.90
2023-05-16T13:34:56.952Z,14.70
2023-05-16T13:37:26.926Z,14.70
2023-05-16T13:39:57.266Z,14.80
2023-05-16T13:42:24.604Z,14.70
2023-05-16T13:44:52.304Z,14.70
2023-05-16T13:47:19.859Z,14.60
2023-05-16T13:49:47.684Z,14.10
2023-05-16T13:52:15.071Z,13.60
2023-05-16T13:54:42.378Z,13.30
2023-05-16T13:57:09.696Z,13.10
2023-05-16T14:00:10.716Z,12.90
2023-05-16T14:02:26.070Z,12.70
2023-05-16T14:04:53.883Z,12.60
2023-05-16T14:07:21.222Z,12.60
2023-05-16T14:09:48.638Z,12.50
2023-05-16T14:12:15.946Z,12.40
2023-05-16T14:14:43.125Z,12.30
2023-05-16T14:17:10.590Z,12.30
2023-05-16T14:19:38.111Z,12.20
2023-05-16T14:22:05.666Z,12.20
2023-05-16T14:24:33.886Z,12.30
2023-05-16T14:27:03.221Z,12.20
2023-05-16T14:29:33.407Z,12.30
2023-05-16T14:32:00.767Z,12.10
2023-05-16T14:34:28.559Z,12.20
2023-05-16T14:36:56.008Z,12.10
2023-05-16T14:39:23.536Z,12.00
2023-05-16T14:41:50.980Z,11.90
2023-05-16T14:44:19.436Z,11.90
2023-05-16T14:46:47.139Z,11.80
2023-05-16T14:49:14.645Z,11.90
2023-05-16T14:51:44.999Z,12.10
2023-05-16T14:54:14.231Z,12.00
2023-05-16T14:56:41.597Z,12.00
2023-05-16T14:59:08.881Z,12.00
2023-05-16T15:01:36.238Z,12.00
2023-05-16T15:04:03.617Z,12.00
2023-05-16T15:06:31.522Z,12.00
2023-05-16T15:08:58.855Z,12.00
2023-05-16T15:11:26.164Z,12.10
2023-05-16T15:13:54.046Z,12.00
2023-05-16T15:16:21.564Z,12.00
2023-05-16T15:18:49.009Z,12.00
2023-05-16T15:21:16.491Z,12.00
2023-05-16T15:23:43.755Z,11.90
2023-05-16T15:26:11.478Z,11.90
2023-05-16T15:28:39.420Z,11.80
2023-05-16T15:31:06.664Z,11.80
2023-05-16T15:33:33.910Z,11.80
2023-05-16T15:36:01.583Z,11.80
2023-05-16T15:38:28.780Z,11.80
2023-05-16T15:41:14.158Z,11.80
2023-05-16T15:43:43.537Z,11.70
2023-05-16T15:46:11.595Z,11.60
2023-05-16T15:48:44.852Z,11.50
2023-05-16T15:51:13.179Z,11.50
2023-05-16T15:53:40.461Z,11.40
2023-05-16T15:56:09.687Z,11.40
2023-05-16T15:58:37.369Z,11.30
2023-05-16T16:01:05.045Z,11.30
2023-05-16T16:03:34.895Z,11.50
2023-05-16T16:06:02.465Z,11.50
2023-05-16T16:08:29.910Z,11.40
2023-05-16T16:10:57.354Z,11.50
2023-05-16T16:13:24.990Z,11.50
2023-05-16T16:15:52.303Z,11.40
2023-05-16T16:18:19.627Z,11.40
2023-05-16T16:20:46.858Z,11.30
2023-05-16T16:23:14.465Z,11.50
2023-05-16T16:25:41.923Z,11.50
2023-05-16T16:28:09.224Z,11.50
2023-05-16T16:30:36.472Z,11.60
2023-05-16T16:33:04.449Z,11.70
2023-05-16T16:35:32.003Z,11.70
2023-05-16T16:38:06.771Z,11.80
2023-05-16T16:40:35.437Z,11.80
2023-05-16T16:43:04.270Z,11.70
2023-05-16T16:45:31.667Z,11.80
2023-05-16T16:47:59.085Z,11.80
2023-05-16T16:50:26.487Z,11.80
2023-05-16T16:52:54.772Z,11.70
2023-05-16T16:55:22.424Z,11.90
2023-05-16T16:57:49.680Z,11.70
2023-05-16T17:00:17.878Z,11.80
2023-05-16T17:02:45.424Z,11.70
2023-05-16T17:05:13.522Z,11.70
2023-05-16T17:07:41.016Z,11.70
2023-05-16T17:10:09.351Z,11.70
2023-05-16T17:12:40.747Z,11.70
2023-05-16T17:15:08.997Z,11.70
2023-05-16T17:18:01.923Z,11.80
2023-05-16T17:20:29.233Z,11.80
2023-05-16T17:22:56.677Z,11.70
2023-05-16T17:25:23.949Z,11.80
2023-05-16T17:27:51.258Z,11.90
2023-05-16T17:30:18.868Z,11.90
2023-05-16T17:32:49.398Z,11.90
2023-05-16T17:35:36.684Z,11.80
2023-05-16T17:38:05.221Z,11.80
2023-05-16T17:40:32.522Z,11.70
2023-05-16T17:43:00.115Z,11.60
2023-05-16T17:45:27.504Z,11.80
2023-05-16T17:47:55.419Z,11.80
2023-05-16T17:50:23.264Z,11.70
2023-05-16T17:52:50.701Z,11.70
2023-05-16T17:55:20.466Z,11.60
2023-05-16T17:57:47.969Z,11.60
2023-05-16T18:00:16.001Z,11.60
2023-05-16T18:02:52.454Z,11.60
2023-05-16T18:05:20.061Z,11.60
2023-05-16T18:07:47.324Z,11.60
2023-05-16T18:10:15.130Z,11.50
2023-05-16T18:12:42.901Z,11.50
2023-05-16T18:15:12.651Z,11.50
2023-05-16T18:17:40.564Z,11.50
2023-05-16T18:20:11.804Z,11.50
2023-05-16T18:22:40.001Z,11.60
2023-05-16T18:25:09.248Z,11.50
2023-05-16T18:27:37.886Z,11.50
2023-05-16T18:30:06.365Z,11.40
2023-05-16T18:32:34.187Z,11.40
2023-05-16T18:35:01.570Z,11.40
2023-05-16T18:37:29.044Z,11.30
2023-05-16T18:39:56.396Z,11.40
2023-05-16T18:42:25.576Z,11.30
2023-05-16T18:44:53.236Z,11.30
2023-05-16T18:47:20.939Z,11.30
2023-05-16T18:49:48.234Z,11.30
2023-05-16T18:52:15.533Z,11.30
2023-05-16T18:54:42.755Z,11.20
2023-05-16T18:57:12.791Z,11.20
2023-05-16T18:59:40.253Z,11.10
2023-05-16T19:02:08.148Z,11.10
2023-05-16T19:04:35.669Z,11.00
2023-05-16T19:07:04.518Z,11.00
2023-05-16T19:09:33.362Z,11.10
2023-05-16T19:17:35.064Z,10.90
2023-05-16T19:20:03.196Z,10.90
2023-05-16T19:22:30.555Z,10.80
2023-05-16T19:24:57.746Z,10.80
2023-05-16T19:27:24.987Z,10.80
2023-05-16T19:29:52.619Z,10.90
2023-05-16T19:32:22.602Z,10.80
2023-05-16T19:34:50.080Z,10.70
2023-05-16T19:37:17.637Z,10.60
2023-05-16T19:39:45.014Z,10.50
2023-05-16T19:42:13.586Z,10.50
2023-05-16T19:44:42.689Z,10.50
2023-05-16T19:47:09.964Z,10.50
2023-05-16T19:49:40.342Z,10.40
2023-05-16T19:52:13.374Z,10.30
2023-05-16T19:54:41.652Z,10.30
2023-05-16T19:57:08.893Z,10.30
2023-05-16T19:59:36.158Z,10.20
2023-05-16T20:02:04.309Z,10.30
2023-05-16T20:04:31.701Z,10.20
2023-05-16T20:06:59.190Z,10.20
2023-05-16T20:09:28.415Z,10.10
2023-05-16T20:12:03.572Z,10.00
2023-05-16T20:14:31.329Z,10.10
2023-05-16T20:16:59.062Z,10.00
2023-05-16T20:19:26.597Z,10.00
2023-05-16T20:21:54.264Z,10.10
2023-05-16T20:24:21.726Z,10.00
2023-05-16T20:26:48.963Z,9.90
2023-05-16T20:29:16.517Z,9.80
2023-05-16T20:31:43.859Z,9.70
2023-05-16T20:34:11.273Z,9.90
2023-05-16T20:36:39.211Z,9.70
2023-05-16T20:39:09.278Z,9.60
2023-05-16T20:41:36.476Z,9.60
2023-05-16T20:44:03.677Z,9.60
2023-05-16T20:46:31.106Z,9.70
2023-05-16T20:48:58.315Z,9.70
2023-05-16T20:51:25.910Z,9.70
2023-05-16T20:53:53.262Z,9.90
2023-05-16T20:56:20.762Z,9.90
2023-05-16T20:58:48.006Z,9.90
2023-05-16T21:01:16.605Z,9.90
2023-05-16T21:03:43.883Z,9.80
2023-05-16T21:06:11.450Z,9.80
2023-05-16T21:08:39.275Z,9.80
2023-05-16T21:11:06.761Z,9.70
2023-05-16T21:13:34.340Z,9.70
2023-05-16T21:16:01.741Z,9.60
2023-05-16T21:18:31.093Z,9.50
2023-05-16T21:20:58.658Z,9.50
2023-05-16T21:23:26.087Z,9.60
2023-05-16T21:25:53.401Z,9.50
2023-05-16T21:28:20.715Z,9.50
2023-05-16T21:30:48.452Z,9.60
2023-05-16T21:33:15.986Z,9.60
2023-05-16T21:35:43.503Z,9.50
2023-05-16T21:38:11.005Z,9.40
2023-05-16T21:40:38.685Z,9.50
2023-05-16T21:43:06.498Z,9.40
2023-05-16T21:45:33.971Z,9.40
2023-05-16T21:48:01.244Z,9.30
2023-05-16T21:50:28.579Z,9.40
2023-05-16T21:52:56.176Z,9.30
2023-05-16T21:55:23.528Z,9.20
2023-05-16T21:57:50.961Z,9.30
2023-05-16T22:00:18.633Z,9.20
2023-05-16T22:02:46.117Z,9.20
2023-05-16T22:05:14.521Z,9.10
2023-05-16T22:07:41.945Z,9.20
2023-05-16T22:10:10.921Z,9.20
2023-05-16T22:12:41.261Z,9.20
2023-05-16T22:15:09.056Z,9.20
2023-05-16T22:17:36.656Z,9.10
2023-05-16T22:20:04.282Z,9.30
2023-05-16T22:22:31.679Z,9.10
2023-05-16T22:24:59.072Z,9.10
2023-05-16T22:27:26.546Z,9.10
2023-05-16T22:29:53.791Z,9.10
2023-05-16T22:32:22.253Z,9.10
2023-05-16T22:34:49.740Z,9.00
2023-05-16T22:37:16.958Z,9.00
2023-05-16T22:39:44.236Z,9.00
2023-05-16T22:42:11.699Z,9.00
2023-05-16T22:44:39.045Z,9.10
2023-05-16T22:47:06.760Z,9.10
2023-05-16T22:49:34.213Z,9.00
2023-05-16T22:52:01.646Z,8.90
2023-05-16T22:54:29.095Z,9.00
2023-05-16T22:56:56.644Z,9.00
2023-05-16T22:59:23.918Z,9.00
2023-05-16T23:01:51.299Z,9.00
2023-05-16T23:04:18.822Z,8.90
2023-05-16T23:06:46.266Z,8.90
2023-05-16T23:09:13.704Z,8.90
2023-05-16T23:11:41.187Z,8.90
2023-05-16T23:14:08.542Z,9.00
2023-05-16T23:16:35.829Z,9.00
2023-05-16T23:19:03.100Z,8.80
2023-05-16T23:21:31.308Z,8.80
2023-05-16T23:23:58.528Z,8.90
2023-05-16T23:26:25.987Z,8.90
2023-05-16T23:28:53.214Z,8.90
2023-05-16T23:31:20.856Z,8.90
2023-05-16T23:33:48.338Z,8.90
2023-05-16T23:36:15.806Z,8.90
2023-05-16T23:38:43.265Z,8.80
2023-05-16T23:41:10.837Z,8.90
2023-05-16T23:43:38.069Z,8.80
2023-05-16T23:46:05.307Z,8.90
2023-05-16T23:48:32.721Z,8.80
2023-05-16T23:51:00.284Z,8.80
2023-05-16T23:53:29.388Z,8.80
2023-05-16T23:55:56.608Z,8.90
2023-05-16T23:58:23.880Z,8.80
